CheckWX is a tool to help pilots better visualize weather data.  It is not intended as a substitute for an official pre-flight weather briefing.

08:42:19 UTC

GEML METAR
Melilla Airport
Melilla, Spain
Current

12 mins ago

GEML 180830Z 28006KT 240V310 CAVOK 22/10 Q1019
Observed
Oct-18 @ 08:30 UTC
Wind
  • 280° at 6 KTS
Visibility
10,000+ meters
Flight Rules
VFR
Cloud Levels
  • Clear skies
Temperature
22°C / 72°F
Dewpoint
10°C / 50°F
Humidity
47%
Altimeter
30.09" Hg
Pressure
1018.92 hPa
Previous

42 mins ago

GEML 180800Z 27006KT CAVOK 21/10 Q1019
Observed
Oct-18 @ 08:00 UTC
Wind
  • 270° at 6 KTS
Visibility
10,000+ meters
Flight Rules
VFR
Cloud Levels
  • Clear skies
Temperature
21°C / 70°F
Dewpoint
10°C / 50°F
Humidity
50%
Altimeter
30.09" Hg
Pressure
1018.92 hPa
Previous

1 hour ago

GEML 180730Z 32003KT CAVOK 18/10 Q1019
Observed
Oct-18 @ 07:30 UTC
Wind
  • 320° at 3 KTS
Visibility
10,000+ meters
Flight Rules
VFR
Cloud Levels
  • Clear skies
Temperature
18°C / 64°F
Dewpoint
10°C / 50°F
Humidity
60%
Altimeter
30.09" Hg
Pressure
1018.92 hPa